Tiempo atmosférico en la estación meteorológica de Rivilla De Barajas, Ávila (925 m.)



Fecha
DESCASC
Temp. máxima en grados centígrados (hora)
DESCASC
Temp. mínima en grados centígrados (hora)
DESCASC
Temp. media en grados centígrados
DESCASC
Racha de viento máxima en m/sg (hora)
DESCASC
Velocidad máxima media en intervalos de 10 minutos(hora)
DESCASC
Precipitaciones diarias en mm
DESCASC
Precipitaciones de 00:00 a 06:00 en mm
DESCASC
Precipitaciones de 06:00 a 12:00 en mm
DESCASC
Precipitaciones de 12:00 a 18:00 en mm
DESCASC
Precipitaciones de 18:00 a 24:00 en mm
DESCASC
31-03-2020 11.4 (17:40) -1.2 (02:20) 5.1 13.06 (12:50) 8.61 (12:40) 2 0 0 1.4 0.6
30-03-2020 6.5 (00:00) -0.5 (23:59) 3 10.83 (14:30) 8.33 (11:40) 0 0 0 0 0
29-03-2020 14.5 (16:50) 2.5 (00:00) 8.5 8.33 (23:50) 6.11 (23:50) 0 0 0 0 0
28-03-2020 14 (17:30) -0.7 (-00:0) 6.7 8.61 (12:30) 4.44 (11:50) 0 0 0 0 0
27-03-2020 10.1 (15:50) -2.5 (-00:0) 3.8 10.28 (16:20) 5.83 (15:40) 0 0 0 0 0
26-03-2020 10.9 (16:20) 0.7 (00:00) 5.8 6.39 (16:20) 3.61 (00:10) 0 0 0 0 0
25-03-2020 14.8 (15:40) 2.7 (00:00) 8.8 8.06 (13:40) 5.83 (13:40) 0 0 0 0 0
24-03-2020 13.5 (17:10) 2.1 (00:00) 7.8 6.94 (11:10) 4.72 (15:30) 0 0 0 0 0
23-03-2020 12 (14:10) 3.7 (00:00) 7.9 10.83 (14:40) 7.5 (14:40) 1 0 0 1 0
22-03-2020 11.7 (16:20) 3.8 (07:20) 7.7 10 (17:00) 5.83 (17:00) 2.8 0 0 0.8 2
21-03-2020 9.1 (13:20) 5 (00:00) 7.1 13.89 (03:40) 7.78 (03:40) 0.6 0 0 0.6 0
20-03-2020 14.2 (13:20) 7 (00:00) 10.6 11.39 (17:50) 6.39 (16:00) 0 0 0 0 0
19-03-2020 12.5 (13:30) 6.9 (00:00) 9.7 8.33 (10:50) 5.83 (11:10) 0 0 0 0 0
18-03-2020 16.5 (16:10) 3.8 (00:00) 10.1 9.17 (13:20) 6.67 (13:30) 0 0 0 0 0
17-03-2020 13.1 (16:20) 0.8 (00:00) 7 12.22 (15:00) 8.61 (15:00) 1.6 1.6 0 0 0
16-03-2020 2.2 (19:20) -0.5 (-00:0) 0.9 13.89 (16:50) 10 (09:00) 20.6 1.8 1.4 7 10.4
15-03-2020 17.6 (13:50) 1.6 (00:00) 9.6 16.39 (16:20) 11.67 (15:50) 0.8 0 0 0 0.8
14-03-2020 16.6 (17:10) 0.6 (00:00) 8.6 6.11 (15:50) 3.33 (14:50) 0 0 0 0 0
13-03-2020 15 (17:20) 4.7 (05:40) 9.8 5.28 (18:50) 3.89 (18:40) 0 0 0 0 0
12-03-2020 22.1 (15:40) 10.1 (00:00) 16.1 6.94 (16:40) 5 (16:40) 0 0 0 0 0
11-03-2020 22.9 (16:40) 9.2 (00:00) 16 6.39 (16:50) 4.17 (14:40) 0 0 0 0 0
10-03-2020 21.2 (17:20) 5.9 (00:00) 13.6 8.06 (15:30) 5.83 (15:40) 0 0 0 0 0
09-03-2020 12.5 (16:40) 2.6 (00:00) 7.5 11.39 (01:00) 8.06 (01:00) 0 0 0 0 0
08-03-2020 11.5 (14:50) 0.7 (00:00) 6.1 10.83 (18:40) 8.33 (12:50) 0 0 0 0 0
07-03-2020 11.6 (17:10) 0 (00:00) 5.8 6.67 (06:30) 5 (01:10) 0 0 0 0 0
06-03-2020 8.4 (16:20) 0.6 (00:00) 4.5 17.5 (10:30) 12.22 (10:50) 0 0 0 0 0
05-03-2020 10.8 (15:50) 3.8 (00:00) 7.3 20.28 (08:10) 14.17 (10:20) 1.8 0 1 0 0.8
04-03-2020 12.4 (17:00) 8.6 (00:00) 10.5 11.11 (06:10) 8.33 (14:20) 0 0 0 0 0
03-03-2020 12.1 (17:20) 2.6 (00:00) 7.4 20.83 (10:30) 12.78 (10:10) 0 0 0 0 0
02-03-2020 10.2 (01:10) 2.7 (00:00) 6.4 26.67 (05:30) 18.33 (05:30) 2.8 2.2 0.2 0.4 0

Gráficas

Temp. máximas Temp. mínimas Temp. medias Precipitaciones Rachas de viento máximas Velocidades máximas media en intervalos de 10 minutos

Datos horarios

Fecha y hora oficial Temperatura (ºC) Velocidad del viento (km/h) Dirección del viento Racha (km/h) Dirección de racha Precipitación (mm) Presión (hPa) Tendencia (hPa) Humedad (%)
2020-03-31 23:00:00 5.4 18 Sudeste 26 Sudeste 0 -- -- 91
2020-03-31 22:00:00 6.2 11 Sudeste 32 Sudeste 0.2 -- -- 88
2020-03-31 21:00:00 6.5 10 Sudeste 35 Sur 0.2 -- -- 86
2020-03-31 20:00:00 8 15 Sur 29 Sur 0.2 -- -- 83
2020-03-31 19:00:00 9.7 15 Sur 31 Sur 0 -- -- 75
2020-03-31 18:00:00 11.3 15 Sudeste 28 Sudeste 0 -- -- 64
2020-03-31 17:00:00 8.9 22 Sudeste 36 Sudeste 0 -- -- 76
2020-03-31 16:00:00 7.7 22 Sudeste 32 Sudeste 0 -- -- 84
2020-03-31 15:00:00 5.8 13 Sudeste 40 Sudeste 1.4 -- -- 90
2020-03-31 14:00:00 6.9 26 Sudeste 44 Sudeste 0 -- -- 79
2020-03-31 13:00:00 6.9 29 Sudeste 47 Sudeste 0 -- -- 76
2020-03-31 12:00:00 5.2 25 Sudeste 34 Este 0 -- -- 86
2020-03-31 11:00:00 1.6 17 Este 24 Este 0 -- -- 92
2020-03-31 10:00:00 -0.1 15 Este 21 Este 0 -- -- 96
2020-03-31 09:00:00 -1 15 Este 22 Este 0 -- -- 97
2020-03-31 08:00:00 -1.1 18 Este 26 Este 0 -- -- 98
2020-03-31 07:00:00 -0.9 17 Este 27 Este 0 -- -- 98
2020-03-31 06:00:00 -0.7 19 Este 28 Este 0 -- -- 98
2020-03-31 05:00:00 -0.8 21 Este 29 Este 0 -- -- 98
2020-03-31 04:00:00 -1 14 Este 22 Este 0 -- -- 98
2020-03-31 03:00:00 -1.1 14 Este 20 Este 0 -- -- 97
2020-03-31 02:00:00 -1.1 17 Este 24 Nordeste 0 -- -- 96
2020-03-31 01:00:00 -0.8 15 Este 23 Este 0 -- -- 95
2020-03-31 00:00:00 -0.5 15 Este 28 Este 0 -- -- 91
2020-03-30 23:00:00 0.9 19 Este 31 Este 0 -- -- 75
2020-03-30 22:00:00 1.3 19 Este 34 Este 0 -- -- 70
2020-03-30 21:00:00 1.9 21 Este 35 Este 0 -- -- 63
2020-03-30 20:00:00 2.2 21 Este 32 Este 0 -- -- 61
2020-03-30 19:00:00 2.6 20 Este 29 Este 0 -- -- 64
2020-03-30 18:00:00 2.8 18 Este 36 Este 0 -- -- 61
2020-03-30 17:00:00 3 18 Este 28 Este 0 -- -- 58
2020-03-30 16:00:00 2.4 19 Este 33 Este 0 -- -- 63
2020-03-30 15:00:00 2.7 23 Nordeste 39 Nordeste 0 -- -- 59
2020-03-30 14:00:00 3.2 23 Nordeste 36 Este 0 -- -- 57
2020-03-30 13:00:00 2.7 26 Este 38 Este 0 -- -- 61
2020-03-30 12:00:00 1.9 22 Nordeste 38 Nordeste 0 -- -- 67
2020-03-30 11:00:00 1.5 23 Nordeste 35 Este 0 -- -- 72
2020-03-30 10:00:00 1.3 24 Nordeste 37 Nordeste 0 -- -- 69
2020-03-30 09:00:00 1.4 20 Nordeste 28 Nordeste 0 -- -- 85
2020-03-30 08:00:00 1.3 19 Nordeste 30 Nordeste 0 -- -- 83
2020-03-30 07:00:00 1.6 18 Nordeste 29 Nordeste 0 -- -- 81
2020-03-30 06:00:00 2.4 15 Este 27 Este 0 -- -- 88
2020-03-30 05:00:00 2.4 15 Este 21 Este 0 -- -- 89
2020-03-30 04:00:00 3 15 Nordeste 27 Este 0 -- -- 86
2020-03-30 03:00:00 3.5 12 Este 20 Nordeste 0 -- -- 86
2020-03-30 02:00:00 4.5 13 Nordeste 21 Nordeste 0 -- -- 82
2020-03-30 01:00:00 5.7 14 Este 24 Este 0 -- -- 75
2020-03-30 00:00:00 6.5 18 Este 30 Este 0 -- -- 72
2020-03-29 23:00:00 7.9 13 Nordeste 27 Este 0 -- -- 61
2020-03-29 22:00:00 10.1 4 Norte 5 Norte 0 -- -- 62
2020-03-29 21:00:00 9.9 6 Norte 11 Norte 0 -- -- 64
2020-03-29 20:00:00 12.8 8 Norte 14 Norte 0 -- -- 52
2020-03-29 19:00:00 14.1 8 Norte 14 Norte 0 -- -- 45
2020-03-29 18:00:00 13.6 8 Norte 21 Norte 0 -- -- 45
2020-03-29 17:00:00 14.4 9 Norte 18 Norte 0 -- -- 47
2020-03-29 16:00:00 14.2 9 Nordeste 24 Este 0 -- -- 44
2020-03-29 15:00:00 13.7 10 Norte 21 Nordeste 0 -- -- 48
2020-03-29 14:00:00 13.1 8 Norte 14 Noroeste 0 -- -- 48
2020-03-29 13:00:00 11.7 6 Noroeste 16 Noroeste 0 -- -- 53
2020-03-29 12:00:00 10.6 7 Noroeste 14 Norte 0 -- -- 59
2020-03-29 11:00:00 9.1 9 Oeste 17 Oeste 0 -- -- 58
2020-03-29 10:00:00 7.4 9 Oeste 15 Sudoeste 0 -- -- 68
2020-03-29 09:00:00 4.8 12 Sudoeste 19 Sudoeste 0 -- -- 73
2020-03-29 08:00:00 4.1 12 Sudoeste 19 Sudoeste 0 -- -- 73
2020-03-29 07:00:00 3.3 10 Oeste 17 Sudoeste 0 -- -- 76
2020-03-29 06:00:00 5.4 10 Sudoeste 17 Sudoeste 0 -- -- 69
2020-03-29 05:00:00 5.9 12 Sudoeste 18 Oeste 0 -- -- 67
2020-03-29 03:00:00 4.7 10 Sudoeste 14 Sudoeste 0 -- -- 77
2020-03-29 01:00:00 5 8 Sudoeste 15 Sudoeste 0 -- -- 74
2020-03-29 00:00:00 6.5 10 Sudoeste 15 Sudoeste 0 -- -- 69
2020-03-28 23:00:00 7.3 11 Sudoeste 14 Sudoeste 0 -- -- 64
2020-03-28 22:00:00 7 5 Sudoeste 10 Sudoeste 0 -- -- 63
2020-03-28 21:00:00 7.9 3 Nordeste 8 Este 0 -- -- 59
2020-03-28 20:00:00 9.9 5 Este 10 Este 0 -- -- 51
2020-03-28 19:00:00 13.6 2 Sudoeste 12 Este 0 -- -- 43
2020-03-28 18:00:00 13.7 8 Sudeste 15 Sudeste 0 -- -- 41
2020-03-28 17:00:00 13.6 7 Nordeste 21 Nordeste 0 -- -- 41
2020-03-28 16:00:00 13.8 9 Sudeste 25 Sudeste 0 -- -- 42
2020-03-28 15:00:00 12.8 10 Nordeste 26 Este 0 -- -- 43
2020-03-28 14:00:00 12.4 7 Sudeste 23 Este 0 -- -- 46
2020-03-28 13:00:00 11.3 9 Sudeste 31 Este 0 -- -- 50
2020-03-28 12:00:00 10.3 10 Este 30 Este 0 -- -- 53
2020-03-28 11:00:00 9 13 Este 21 Este 0 -- -- 59
2020-03-28 10:00:00 7.4 12 Este 20 Este 0 -- -- 66
2020-03-28 09:00:00 5 9 Sudeste 14 Sudeste 0 -- -- 74
2020-03-28 08:00:00 1.6 4 Sur 6 Sur 0 -- -- 83
2020-03-28 07:00:00 -0.7 2 Sudeste 7 Sur 0 -- -- 87
2020-03-28 06:00:00 0 3 Sur 6 Sur 0 -- -- 86
2020-03-28 05:00:00 0.6 -- -- -- -- 0 -- -- 85
2020-03-28 04:00:00 0.8 0 Calma -- -- 0 -- -- 85
2020-03-28 03:00:00 0.8 3 Nordeste 13 Sur 0 -- -- 83
2020-03-28 02:00:00 2.7 8 Sur 15 Sur 0 -- -- 77
2020-03-28 01:00:00 2.6 6 Sur 13 Sur 0 -- -- 74
2020-03-28 00:00:00 1.8 0 Calma 9 Sur 0 -- -- 74
2020-03-27 23:00:00 3.3 6 Sur 10 Sur 0 -- -- 68
2020-03-27 22:00:00 3.9 4 Sur 10 Sudeste 0 -- -- 66
2020-03-27 21:00:00 4.7 4 Sur 8 Sur 0 -- -- 61
2020-03-27 20:00:00 5.9 4 Sur 23 Sudeste 0 -- -- 59
2020-03-27 19:00:00 7.7 12 Sur 30 Sudeste 0 -- -- 56
2020-03-27 18:00:00 9.1 13 Sudeste 35 Sudeste 0 -- -- 51
2020-03-27 17:00:00 9.7 15 Sudeste 37 Sudeste 0 -- -- 50
2020-03-27 16:00:00 9.7 13 Este 33 Este 0 -- -- 48
2020-03-27 15:00:00 9 11 Sudeste 26 Sudeste 0 -- -- 50
2020-03-27 14:00:00 7.6 12 Este 24 Este 0 -- -- 53
2020-03-27 13:00:00 7.9 8 Este 22 Este 0 -- -- 54
2020-03-27 12:00:00 6.4 9 Este 22 Este 0 -- -- 62
2020-03-27 11:00:00 4.7 12 Este 16 Este 0 -- -- 67
2020-03-27 10:00:00 2.3 9 Este 14 Este 0 -- -- 77
2020-03-27 09:00:00 -0.2 11 Este 16 Este 0 -- -- 83
2020-03-27 08:00:00 -2 4 Nordeste 10 Nordeste 0 -- -- 87
2020-03-27 07:00:00 -2 7 Nordeste 11 Nordeste 0 -- -- 85
2020-03-27 06:00:00 -1.3 4 Este 9 Este 0 -- -- 87
2020-03-27 05:00:00 -0.7 8 Este 12 Este 0 -- -- 87
2020-03-27 04:00:00 0.1 9 Este 13 Este 0 -- -- 83
2020-03-27 03:00:00 0.2 6 Este 10 Este 0 -- -- 85
2020-03-27 02:00:00 0.2 5 Este 15 Este 0 -- -- 86
2020-03-27 01:00:00 0.1 11 Este 17 Este 0 -- -- 86
2020-03-27 00:00:00 1.3 10 Este 12 Sudeste 0 -- -- 82
2020-03-26 23:00:00 1.7 11 Este 15 Este 0 -- -- 82
2020-03-26 22:00:00 3 10 Este 16 Este 0 -- -- 78
2020-03-26 21:00:00 6.7 5 Sur 7 Sur 0 -- -- 56
2020-03-26 20:00:00 7.8 4 Este 11 Este 0 -- -- 51
2020-03-26 19:00:00 10 6 Nordeste 12 Norte 0 -- -- 47
2020-03-26 18:00:00 10.7 6 Nordeste 21 Norte 0 -- -- 41
2020-03-26 17:00:00 10.9 8 Norte 23 Norte 0 -- -- 39
2020-03-26 16:00:00 10.7 13 Norte 22 Norte 0 -- -- 38
2020-03-26 15:00:00 10.2 12 Norte 21 Norte 0 -- -- 43
2020-03-26 14:00:00 9.9 12 Norte 19 Nordeste 0 -- -- 45
2020-03-26 13:00:00 9.6 12 Nordeste 19 Norte 0 -- -- 45
2020-03-26 12:00:00 8.3 6 Norte 14 Este 0 -- -- 50
2020-03-26 11:00:00 7.5 6 Este 13 Este 0 -- -- 49
2020-03-26 10:00:00 6.2 8 Este 12 Este 0 -- -- 49
2020-03-26 09:00:00 4.8 5 Sudeste 7 Sudeste 0 -- -- 52
2020-03-26 08:00:00 2 5 Sur 9 Sur 0 -- -- 59
2020-03-26 07:00:00 0.8 5 Sudeste 10 Este 0 -- -- 67
2020-03-26 06:00:00 2 7 Sudeste 9 Sudeste 0 -- -- 66
2020-03-26 05:00:00 2.5 0 Calma 6 Oeste 0 -- -- 83
2020-03-26 04:00:00 2.3 0 Calma 4 Este 0 -- -- 80
2020-03-26 03:00:00 3.6 5 Este 7 Este 0 -- -- 92
2020-03-26 02:00:00 5.6 4 Sur 8 Sudeste 0 -- -- 92
2020-03-26 01:00:00 6.2 3 Sudeste 19 Sudoeste 0 -- -- 90
2020-03-26 00:00:00 7.7 12 Oeste 28 Sudoeste 0 -- -- 87
2020-03-25 23:00:00 7.9 13 Sudoeste 22 Sudoeste 0 -- -- 80
2020-03-25 22:00:00 8.2 13 Sudoeste 23 Sudoeste 0 -- -- 78
2020-03-25 21:00:00 8.5 14 Sudoeste 22 Sudoeste 0 -- -- 78
2020-03-25 20:00:00 9.3 14 Sudoeste 20 Oeste 0 -- -- 79
2020-03-25 19:00:00 12.9 11 Oeste 18 Oeste 0 -- -- 65
2020-03-25 18:00:00 14.5 10 Norte 24 Norte 0 -- -- 40
2020-03-25 17:00:00 14.8 18 Norte 28 Noroeste 0 -- -- 46
2020-03-25 16:00:00 14.6 15 Norte 27 Noroeste 0 -- -- 51
2020-03-25 15:00:00 13.9 15 Norte 25 Noroeste 0 -- -- 58
2020-03-25 14:00:00 13.4 15 Noroeste 29 Noroeste 0 -- -- 63
2020-03-25 13:00:00 12.3 17 Oeste 26 Oeste 0 -- -- 64
2020-03-25 12:00:00 11.3 15 Oeste 26 Oeste 0 -- -- 72
2020-03-25 11:00:00 9.9 18 Oeste 27 Oeste 0 -- -- 82
2020-03-25 10:00:00 8.5 16 Oeste 25 Sudoeste 0 -- -- 87
2020-03-25 09:00:00 6.5 13 Oeste 22 Sudoeste 0 -- -- 94
2020-03-25 08:00:00 4.7 14 Oeste 22 Sudoeste 0 -- -- 95
2020-03-25 07:00:00 4.2 14 Sudoeste 20 Sudoeste 0 -- -- 93
2020-03-25 06:00:00 3 0 Calma 10 Sudoeste 0 -- -- 94
2020-03-25 05:00:00 2.8 2 Noroeste 14 Sudoeste 0 -- -- 92
2020-03-25 04:00:00 3.1 7 Sudoeste 15 Sudoeste 0 -- -- 90
2020-03-25 03:00:00 4.6 10 Sudoeste 15 Sudoeste 0 -- -- 90
2020-03-25 02:00:00 4.3 3 Sudoeste 6 Sudoeste 0 -- -- 90
2020-03-25 01:00:00 5.2 4 Sudeste 10 Sudeste 0 -- -- 87
2020-03-25 00:00:00 5.6 5 Sur 10 Sur 0 -- -- 87
2020-03-24 23:00:00 6.5 2 Este 9 Sur 0 -- -- 83
2020-03-24 22:00:00 8.2 5 Sur 14 Nordeste 0 -- -- 77
2020-03-24 21:00:00 9.3 5 Sur 10 Sur 0 -- -- 75
2020-03-24 20:00:00 11 4 Sur 17 Nordeste 0 -- -- 69
2020-03-24 19:00:00 12.1 8 Norte 14 Norte 0 -- -- 71
2020-03-24 18:00:00 12.7 6 Nordeste 22 Nordeste 0 -- -- 65
2020-03-24 17:00:00 13.2 14 Norte 21 Nordeste 0 -- -- 61
2020-03-24 16:00:00 13 15 Nordeste 24 Nordeste 0 -- -- 63
2020-03-24 15:00:00 12.4 14 Nordeste 22 Nordeste 0 -- -- 64
2020-03-24 14:00:00 12.9 12 Nordeste 23 Este 0 -- -- 61
2020-03-24 13:00:00 12.2 9 Este 24 Nordeste 0 -- -- 67
2020-03-24 12:00:00 11.4 13 Nordeste 25 Este 0 -- -- 71
2020-03-24 11:00:00 10.5 12 Este 19 Este 0 -- -- 78
2020-03-24 10:00:00 6.6 5 Este 9 Este 0 -- -- 92
2020-03-24 09:00:00 4.2 5 Nordeste 8 Nordeste 0 -- -- 95
2020-03-24 08:00:00 2.4 0 Calma 10 Sudeste 0 -- -- 94
2020-03-24 07:00:00 3.4 8 Sudeste 12 Sudeste 0 -- -- 94
2020-03-24 06:00:00 3.1 4 Sudeste 13 Sudeste 0 -- -- 95
2020-03-24 05:00:00 3.5 6 Sudeste 10 Sudeste 0 -- -- 92
2020-03-24 04:00:00 4 5 Sudeste 9 Este 0 -- -- 92
2020-03-24 03:00:00 5 5 Este 18 Sudeste 0 -- -- 87
2020-03-24 02:00:00 5.5 15 Sudeste 21 Sudeste 0 -- -- 90
2020-03-24 01:00:00 5.1 5 Sudeste 14 Sudeste 0 -- -- 89
2020-03-24 00:00:00 5.6 4 Sur 15 Sudeste 0 -- -- 86
2020-03-23 23:00:00 5.9 6 Sudeste 15 Sudeste 0 -- -- 85
2020-03-23 22:00:00 6.8 12 Sudeste 22 Sudeste 0 -- -- 84
2020-03-23 21:00:00 7.3 10 Sur 19 Sur 0 -- -- 81
2020-03-23 20:00:00 8.1 6 Sudeste 31 Sudeste 0 -- -- 77
2020-03-23 19:00:00 10.4 8 Sudeste 23 Este 0 -- -- 71
2020-03-23 18:00:00 11.6 19 Sudeste 26 Este 0 -- -- 62
2020-03-23 17:00:00 11.8 19 Sudeste 28 Sudeste 0 -- -- 66
2020-03-23 16:00:00 10.1 15 Sudeste 28 Sudeste 0.2 -- -- 78
2020-03-23 15:00:00 8.9 12 Sudeste 39 Este 0.8 -- -- 85
2020-03-23 14:00:00 11.8 16 Este 28 Este 0 -- -- 69
2020-03-23 13:00:00 11.2 13 Este 21 Este 0 -- -- 74
2020-03-23 12:00:00 9.8 11 Nordeste 22 Este 0 -- -- 81
2020-03-23 11:00:00 8.5 6 Este 10 Este 0 -- -- 95
2020-03-23 10:00:00 5.6 4 Nordeste 13 Nordeste 0 -- -- 99
2020-03-23 09:00:00 6.1 6 Nordeste 9 Nordeste 0 -- -- 97
2020-03-23 08:00:00 4.4 4 Sudeste 7 Sudeste 0 -- -- 98
2020-03-23 07:00:00 3.8 5 Sudeste 6 Sudeste 0 -- -- 97
2020-03-23 06:00:00 4.1 2 Este 5 Este 0 -- -- 96
2020-03-23 05:00:00 4.4 4 Sudeste 5 Sudeste 0 -- -- 94
2020-03-23 04:00:00 4.4 4 Sur 8 Sur 0 -- -- 96
2020-03-23 03:00:00 4.6 4 Sur 9 Sur 0 -- -- 97
2020-03-23 02:00:00 4.4 5 Sur 8 Sur 0 -- -- 96
2020-03-23 01:00:00 4.6 0 Calma 6 Noroeste 0 -- -- 97
2020-03-23 00:00:00 4.2 4 Noroeste 8 Sur 0 -- -- 95
2020-03-22 23:00:00 5.7 0 Calma 6 Sur 0 -- -- 94
2020-03-22 22:00:00 6.4 2 Sur 8 Nordeste 0.8 -- -- 92
2020-03-22 21:00:00 7 3 Nordeste 15 Este 0.2 -- -- 95
2020-03-22 20:00:00 7.1 3 Sur 15 Este 1 -- -- 95
2020-03-22 19:00:00 7.5 16 Nordeste 32 Nordeste 0 -- -- 91
2020-03-22 18:00:00 9.2 3 Este 27 Nordeste 0.4 -- -- 87
2020-03-22 17:00:00 9.7 21 Nordeste 36 Nordeste 0.2 -- -- 82
2020-03-22 16:00:00 11.1 10 Nordeste 17 Nordeste 0 -- -- 70
2020-03-22 15:00:00 10.6 9 Nordeste 22 Norte 0.2 -- -- 74
2020-03-22 14:00:00 10.8 11 Este 19 Este 0 -- -- 71
2020-03-22 13:00:00 8.8 8 Este 13 Este 0 -- -- 85
2020-03-22 12:00:00 7 3 Este 6 Este 0 -- -- 90
2020-03-22 11:00:00 6.3 4 Este 10 Este 0 -- -- 90
2020-03-22 10:00:00 6.5 7 Este 9 Este 0 -- -- 89
2020-03-22 09:00:00 5.1 3 Este 8 Nordeste 0 -- -- 95
2020-03-22 08:00:00 4.3 0 Calma 8 Sudeste 0 -- -- 95
2020-03-22 07:00:00 3.9 5 Sudeste 9 Este 0 -- -- 94
2020-03-22 06:00:00 4.8 3 Sur 5 Sur 0 -- -- 89
2020-03-22 05:00:00 4.8 3 Sur 10 Sudeste 0 -- -- 93
2020-03-22 04:00:00 4.7 10 Este 18 Este 0 -- -- 96
2020-03-22 03:00:00 5.2 0 Calma 9 Oeste 0 -- -- 93
2020-03-22 02:00:00 5.3 4 Sudoeste 10 Sur 0 -- -- 93
2020-03-22 01:00:00 5.3 3 Sur 9 Sur 0 -- -- 99
2020-03-22 00:00:00 5.8 3 Sur 8 Oeste 0 -- -- 98
2020-03-21 23:00:00 6 4 Sudoeste 10 Sudoeste 0 -- -- 98
2020-03-21 22:00:00 5.5 5 Oeste 9 Sudeste 0 -- -- 96
2020-03-21 21:00:00 6.1 8 Este 10 Este 0 -- -- 95
2020-03-21 20:00:00 7 10 Norte 14 Norte 0 -- -- 96
2020-03-21 19:00:00 7.8 5 Norte 8 Norte 0 -- -- 93
2020-03-21 18:00:00 8 2 Norte 6 Noroeste 0 -- -- 91
2020-03-21 17:00:00 7.8 4 Noroeste 13 Oeste 0 -- -- 91
2020-03-21 16:00:00 7.3 8 Sudoeste 13 Sudoeste 0.4 -- -- 93
2020-03-21 15:00:00 8.5 4 Sur 23 Sur 0 -- -- 84
2020-03-21 14:00:00 9 14 Sudeste 27 Sudeste 0 -- -- 81
2020-03-21 13:00:00 8.3 10 Sudeste 29 Sudeste 0.2 -- -- 87
2020-03-21 12:00:00 8 16 Sudeste 34 Sudeste 0 -- -- 86
2020-03-21 11:00:00 8.1 23 Sudeste 39 Sudeste 0 -- -- 84
2020-03-21 10:00:00 7.3 18 Sudeste 35 Sudeste 0 -- -- 89
2020-03-21 09:00:00 7 12 Sudeste 27 Sur 0 -- -- 89
2020-03-21 08:00:00 6.6 18 Sudeste 34 Sudeste 0 -- -- 91
2020-03-21 07:00:00 6.5 14 Sudeste 33 Sudeste 0 -- -- 90
2020-03-21 06:00:00 6.8 16 Sudeste 37 Sudeste 0 -- -- 88
2020-03-21 05:00:00 7 18 Sudeste 38 Sudeste 0 -- -- 85
2020-03-21 04:00:00 7.1 19 Sudeste 50 Sur 0 -- -- 85
2020-03-21 03:00:00 7.4 19 Sudeste 42 Sudeste 0 -- -- 84
2020-03-21 02:00:00 7.9 24 Sudeste 40 Sudeste 0 -- -- 84
2020-03-21 01:00:00 7.6 14 Sudeste 34 Sudeste 0 -- -- 88
2020-03-21 00:00:00 7.6 13 Sudeste 28 Sur 0 -- -- 86
2020-03-20 23:00:00 7.7 3 Nordeste 17 Sur 0 -- -- 84
2020-03-20 22:00:00 7.9 11 Sudeste 28 Sudeste 0 -- -- 84
2020-03-20 21:00:00 8.5 13 Sudeste 30 Sudeste 0 -- -- 81
2020-03-20 20:00:00 8.4 13 Sudeste 31 Sudeste 0 -- -- 84
2020-03-20 19:00:00 9.4 17 Sudeste 41 Sudeste 0 -- -- 81
2020-03-20 18:00:00 10 18 Sudeste 41 Sudeste 0 -- -- 79
2020-03-20 17:00:00 11.4 19 Sur 37 Sur 0 -- -- 74
2020-03-20 16:00:00 11.9 23 Sur 37 Sur 0 -- -- 72
2020-03-20 15:00:00 12.5 22 Sur 35 Sur 0 -- -- 70
2020-03-20 14:00:00 13.4 18 Sur 32 Sur 0 -- -- 69
2020-03-20 13:00:00 13.3 13 Sudeste 33 Sur 0 -- -- 71
2020-03-20 12:00:00 10.2 15 Sudeste 35 Sur 0 -- -- 79
2020-03-20 11:00:00 10.2 19 Sur 34 Sur 0 -- -- 77
2020-03-20 10:00:00 9.5 16 Sur 32 Sur 0 -- -- 81
2020-03-20 09:00:00 8 17 Sur 30 Sur 0 -- -- 86
2020-03-20 08:00:00 7.5 13 Sur 28 Sur 0 -- -- 88
2020-03-20 07:00:00 7.7 14 Sur 24 Sur 0 -- -- 87
2020-03-20 06:00:00 7.7 11 Sur 27 Sur 0 -- -- 86
2020-03-20 05:00:00 7.9 14 Sur 31 Sudeste 0 -- -- 86
2020-03-20 04:00:00 8.1 12 Sur 24 Sur 0 -- -- 85
2020-03-20 03:00:00 8.4 8 Sudeste 21 Sudeste 0 -- -- 81
2020-03-20 02:00:00 8.2 9 Sudeste 18 Sudeste 0 -- -- 83
2020-03-20 01:00:00 9.2 0 Calma 9 Sudeste 0 -- -- 76
2020-03-20 00:00:00 9.8 6 Sur 22 Sur 0 -- -- 72
2020-03-19 23:00:00 9.7 6 Sudeste 16 Sudeste 0 -- -- 72
2020-03-19 22:00:00 9.4 14 Sudeste 27 Sudeste 0 -- -- 78
2020-03-19 21:00:00 9.6 18 Sudeste 27 Sudeste 0 -- -- 76
2020-03-19 20:00:00 9.3 14 Sudeste 19 Sudeste 0 -- -- 78
2020-03-19 19:00:00 10.9 6 Sudeste 20 Sur 0 -- -- 68
2020-03-19 18:00:00 11.9 11 Sur 19 Sudeste 0 -- -- 67
2020-03-19 17:00:00 11.7 6 Sudeste 13 Sur 0 -- -- 68
2020-03-19 16:00:00 11.3 9 Sudeste 19 Sudeste 0 -- -- 70
2020-03-19 15:00:00 12.1 8 Sudeste 18 Sudeste 0 -- -- 67
2020-03-19 14:00:00 12.4 8 Sudeste 26 Sudeste 0 -- -- 65
2020-03-19 13:00:00 12.4 14 Sudeste 28 Sudeste 0 -- -- 63
2020-03-19 12:00:00 11.7 15 Sudeste 29 Sudeste 0 -- -- 60
2020-03-19 11:00:00 10.6 18 Sudeste 30 Sudeste 0 -- -- 63
2020-03-19 10:00:00 10.1 13 Sudeste 22 Sudeste 0 -- -- 65
2020-03-19 09:00:00 8.4 12 Sudeste 18 Sudeste 0 -- -- 75
2020-03-19 08:00:00 7.1 14 Sudeste 18 Sudeste 0 -- -- 87
2020-03-19 07:00:00 7.8 9 Sudeste 19 Sur 0 -- -- 87
2020-03-19 06:00:00 9.8 12 Sur 21 Sur 0 -- -- 81
2020-03-19 05:00:00 9.2 8 Sur 12 Sur 0 -- -- 83
2020-03-19 04:00:00 9.7 3 Sudeste 13 Sur 0 -- -- 79
2020-03-19 03:00:00 10 10 Sur 18 Sur 0 -- -- 77
2020-03-19 02:00:00 9.7 8 Sur 15 Sur 0 -- -- 77
2020-03-19 01:00:00 9.5 8 Sur 13 Sur 0 -- -- 75
2020-03-19 00:00:00 9.8 5 Sur 12 Sur 0 -- -- 72
2020-03-18 23:00:00 11.1 6 Sudeste 17 Sur 0 -- -- 67
2020-03-18 22:00:00 10.8 8 Sur 15 Sur 0 -- -- 70
2020-03-18 21:00:00 11 6 Sur 13 Sur 0 -- -- 71
2020-03-18 20:00:00 11.8 5 Sur 12 Sur 0 -- -- 70
2020-03-18 19:00:00 13 5 Sudeste 17 Sur 0 -- -- 69
2020-03-18 18:00:00 14.5 9 Sur 19 Sur 0 -- -- 66
2020-03-18 17:00:00 15.4 10 Este 21 Sudeste 0 -- -- 72
2020-03-18 16:00:00 16.4 12 Sudeste 30 Sudeste 0 -- -- 59
2020-03-18 15:00:00 15.6 19 Sudeste 33 Sudeste 0 -- -- 60
2020-03-18 14:00:00 14.3 19 Sudeste 33 Este 0 -- -- 66
2020-03-18 13:00:00 14.2 18 Sudeste 29 Este 0 -- -- 66
2020-03-18 12:00:00 12.9 15 Este 24 Sudeste 0 -- -- 74
2020-03-18 11:00:00 11.6 9 Sudeste 18 Sudeste 0 -- -- 74
2020-03-18 10:00:00 10.1 6 Sur 21 Sur 0 -- -- 79
2020-03-18 09:00:00 8.2 9 Sudeste 19 Sur 0 -- -- 84
2020-03-18 08:00:00 6.5 5 Sudeste 16 Sudeste 0 -- -- 87
2020-03-18 07:00:00 6.2 10 Sudeste 17 Sudeste 0 -- -- 91
2020-03-18 06:00:00 5.4 10 Sudeste 17 Este 0 -- -- 96
2020-03-18 05:00:00 4.2 14 Este 17 Este 0 -- -- 97
2020-03-18 04:00:00 5.7 9 Sudeste 14 Sudeste 0 -- -- 95
2020-03-18 03:00:00 6.1 7 Sur 13 Sur 0 -- -- 96
2020-03-18 02:00:00 6.1 3 Sudeste 14 Sudeste 0 -- -- 92
2020-03-18 01:00:00 6.7 8 Este 17 Sudeste 0 -- -- 90
2020-03-18 00:00:00 7.8 6 Sudeste 15 Sur 0 -- -- 90
2020-03-17 23:00:00 6.5 10 Sudeste 15 Este 0 -- -- 92
2020-03-17 22:00:00 7.7 6 Sudeste 17 Este 0 -- -- 89
2020-03-17 21:00:00 7.3 16 Sudeste 21 Sudeste 0 -- -- 91
2020-03-17 20:00:00 9.1 10 Nordeste 27 Sudeste 0 -- -- 85
2020-03-17 19:00:00 11.2 9 Sudeste 27 Sudeste 0 -- -- 79
2020-03-17 18:00:00 11.4 18 Sudeste 32 Este 0 -- -- 75
2020-03-17 17:00:00 12.2 21 Este 38 Este 0 -- -- 72
2020-03-17 16:00:00 12.4 27 Este 42 Este 0 -- -- 73
2020-03-17 15:00:00 11.1 31 Sudeste 44 Sudeste 0 -- -- 75
2020-03-17 14:00:00 9.5 12 Este 21 Este 0 -- -- 93
2020-03-17 13:00:00 7 6 Este 14 Sudeste 0 -- -- 95
2020-03-17 12:00:00 5.9 8 Sudeste 20 Sudeste 0 -- -- 97
2020-03-17 11:00:00 5.1 14 Sudeste 21 Sudeste 0 -- -- 100
2020-03-17 10:00:00 3.4 4 Sur 13 Sudeste 0 -- -- 100
2020-03-17 09:00:00 3 4 Sudeste 10 Sudeste 0 -- -- 100
2020-03-17 08:00:00 1.7 5 Este 9 Este 0 -- -- 100
2020-03-17 07:00:00 1.6 4 Sudeste 7 Sudeste 0 -- -- 100
2020-03-17 06:00:00 1.1 5 Sudeste 6 Este 0 -- -- 100
2020-03-17 05:00:00 1 3 Este 6 Sudeste 0 -- -- 100
2020-03-17 04:00:00 1.1 4 Sudeste 8 Sur 0 -- -- 100
2020-03-17 03:00:00 1.2 0 Calma 6 Sudeste 0.2 -- -- 100
2020-03-17 02:00:00 1.2 3 Este 6 Este 0.6 -- -- 100
2020-03-17 01:00:00 1.1 6 Nordeste 14 Este 0.8 -- -- 100
2020-03-17 00:00:00 0.8 6 Sudeste 16 Sudeste 1.6 -- -- 100
2020-03-16 23:00:00 0.8 6 Sudeste 18 Sudeste 3 -- -- 100
2020-03-16 22:00:00 2 18 Este 27 Este 1.6 -- -- 100
2020-03-16 21:00:00 1.6 10 Este 30 Este 1.2 -- -- 100
2020-03-16 20:00:00 1.8 13 Este 35 Nordeste 1.4 -- -- 100
2020-03-16 19:00:00 2 23 Nordeste 33 Nordeste 1.6 -- -- 100
2020-03-16 18:00:00 1.6 18 Este 46 Nordeste 2 -- -- 100
2020-03-16 17:00:00 1.6 29 Nordeste 50 Nordeste 0.8 -- -- 100
2020-03-16 16:00:00 1.3 26 Nordeste 39 Nordeste 2.8 -- -- 100
2020-03-16 15:00:00 0 10 Norte 17 Norte 0.8 -- -- 100
2020-03-16 14:00:00 -0.2 6 Norte 27 Norte 0.4 -- -- 100
2020-03-16 13:00:00 -0.2 23 Norte 35 Norte 0.2 -- -- 100
2020-03-16 12:00:00 -0.2 13 Norte 30 Norte 1 -- -- 100
2020-03-16 11:00:00 -0.3 20 Norte 35 Norte 0.4 -- -- 100
2020-03-16 10:00:00 -0.3 27 Norte 45 Norte 0 -- -- 100
2020-03-16 09:00:00 -0.3 36 Norte 48 Noroeste 0 -- -- 100
2020-03-16 08:00:00 -0.5 24 Noroeste 35 Noroeste 0 -- -- 100
2020-03-16 07:00:00 -0.3 22 Noroeste 32 Noroeste 0 -- -- 99
2020-03-16 06:00:00 0 24 Noroeste 37 Noroeste 0.2 -- -- 99
2020-03-16 05:00:00 0.4 22 Noroeste 32 Noroeste 0.4 -- -- 99
2020-03-16 04:00:00 0.2 13 Noroeste 21 Noroeste 0 -- -- 99
2020-03-16 03:00:00 0.3 14 Noroeste 23 Oeste 0.2 -- -- 99
2020-03-16 02:00:00 0.4 17 Oeste 23 Oeste 0.4 -- -- 98
2020-03-16 01:00:00 0.6 17 Oeste 26 Noroeste 0.6 -- -- 97
2020-03-16 00:00:00 1.6 19 Noroeste 30 Oeste 0.8 -- -- 94
2020-03-15 23:00:00 3.7 23 Oeste 43 Noroeste 0 -- -- 85
2020-03-15 22:00:00 5.4 36 Noroeste 45 Oeste 0 -- -- 81
2020-03-15 21:00:00 8.6 10 Sudoeste 25 Oeste 0 -- -- 71
2020-03-15 20:00:00 9.5 20 Oeste 30 Noroeste 0 -- -- 68
2020-03-15 19:00:00 10.8 29 Oeste 41 Oeste 0 -- -- 71
2020-03-15 18:00:00 13.3 30 Oeste 41 Oeste 0 -- -- 68
2020-03-15 17:00:00 14.3 33 Oeste 59 Oeste 0 -- -- 64
2020-03-15 16:00:00 16.8 40 Oeste 58 Oeste 0 -- -- 45
2020-03-15 15:00:00 17.4 28 Oeste 47 Oeste 0 -- -- 54
2020-03-15 14:00:00 17.1 28 Oeste 47 Sudoeste 0 -- -- 52
2020-03-15 13:00:00 17.2 26 Oeste 42 Oeste 0 -- -- 53
2020-03-15 12:00:00 16.6 25 Oeste 36 Oeste 0 -- -- 54
2020-03-15 11:00:00 15.6 19 Oeste 27 Oeste 0 -- -- 53
2020-03-15 10:00:00 14 14 Oeste 28 Oeste 0 -- -- 58
2020-03-15 09:00:00 11 10 Sudoeste 17 Sudoeste 0 -- -- 59
2020-03-15 08:00:00 8.5 6 Sudoeste 13 Sudoeste 0 -- -- 59
2020-03-15 07:00:00 5.3 4 Sudoeste 11 Sudoeste 0 -- -- 69
2020-03-15 06:00:00 4.5 4 Sur 10 Sudoeste 0 -- -- 69
2020-03-15 05:00:00 5.5 5 Sudoeste 10 Sur 0 -- -- 68
2020-03-15 04:00:00 5.8 7 Sur 12 Sur 0 -- -- 64
2020-03-15 03:00:00 6 5 Sudoeste 9 Sudoeste 0 -- -- 57
2020-03-15 02:00:00 5.1 4 Sudoeste 7 Sur 0 -- -- 61
2020-03-15 01:00:00 6.7 5 Sur 8 Sur 0 -- -- 54
2020-03-15 00:00:00 8 7 Sur 9 Sur 0 -- -- 50
2020-03-14 23:00:00 9.1 8 Sur 9 Sur 0 -- -- 46
2020-03-14 22:00:00 10 4 Sur 5 Sur 0 -- -- 43
2020-03-14 21:00:00 10.7 3 Norte 9 Norte 0 -- -- 42
2020-03-14 20:00:00 10.2 7 Norte 9 Noroeste 0 -- -- 50
2020-03-14 19:00:00 14 7 Norte 13 Norte 0 -- -- 46
2020-03-14 18:00:00 16.1 10 Norte 16 Nordeste 0 -- -- 35
2020-03-14 17:00:00 16.5 10 Nordeste 17 Nordeste 0 -- -- 38
2020-03-14 16:00:00 16.3 9 Nordeste 22 Nordeste 0 -- -- 40
2020-03-14 15:00:00 15.9 12 Nordeste 20 Nordeste 0 -- -- 39
2020-03-14 14:00:00 14.8 10 Nordeste 17 Nordeste 0 -- -- 49
2020-03-14 13:00:00 12.6 7 Nordeste 14 Nordeste 0 -- -- 65
2020-03-14 12:00:00 10.5 6 Este 12 Nordeste 0 -- -- 68
2020-03-14 11:00:00 8.1 5 Nordeste 12 Nordeste 0 -- -- 86
2020-03-14 10:00:00 6 3 Nordeste 5 Sudeste 0 -- -- 99
2020-03-14 09:00:00 2.4 0 Calma 3 Sur 0 -- -- 100
2020-03-14 08:00:00 0.6 0 Calma 6 Nordeste 0 -- -- 98
2020-03-14 07:00:00 1.9 4 Nordeste 8 Nordeste 0 -- -- 97
2020-03-14 06:00:00 2.2 2 Oeste 6 Norte 0 -- -- 94
2020-03-14 05:00:00 2.5 2 Noroeste 5 Este 0 -- -- 96
2020-03-14 04:00:00 3 6 Sudoeste 8 Sudoeste 0 -- -- 97
2020-03-14 03:00:00 3.3 0 Calma 4 Sudoeste 0 -- -- 95
2020-03-14 02:00:00 3.8 3 Norte 10 Sur 0 -- -- 92
2020-03-14 01:00:00 5 6 Sur 10 Sur 0 -- -- 92
2020-03-14 00:00:00 5.8 3 Nordeste 13 Norte 0 -- -- 92
2020-03-13 23:00:00 7 3 Norte 6 Norte 0 -- -- 88
2020-03-13 22:00:00 8 4 Nordeste 6 Nordeste 0 -- -- 85
2020-03-13 21:00:00 9.1 3 Nordeste 10 Norte 0 -- -- 84
2020-03-13 20:00:00 10.3 9 Norte 18 Norte 0 -- -- 80
2020-03-13 19:00:00 13.2 12 Norte 19 Norte 0 -- -- 71
2020-03-13 18:00:00 14.3 13 Norte 19 Norte 0 -- -- 67
2020-03-13 17:00:00 14.9 9 Norte 19 Norte 0 -- -- 66
2020-03-13 16:00:00 14.4 7 Nordeste 17 Norte 0 -- -- 70
2020-03-13 15:00:00 13.1 8 Nordeste 14 Norte 0 -- -- 74
2020-03-13 14:00:00 10.8 6 Este 13 Nordeste 0 -- -- 84
2020-03-13 13:00:00 9.2 7 Nordeste 13 Nordeste 0 -- -- 88
2020-03-13 12:00:00 8.5 6 Nordeste 14 Nordeste 0 -- -- 92
2020-03-13 11:00:00 7.7 8 Este 16 Este 0 -- -- 96
2020-03-13 10:00:00 7 8 Este 14 Este 0 -- -- 99
2020-03-13 09:00:00 6.1 6 Nordeste 12 Nordeste 0 -- -- 100
2020-03-13 08:00:00 5.6 7 Nordeste 10 Nordeste 0 -- -- 100
2020-03-13 07:00:00 5.2 3 Nordeste 8 Este 0 -- -- 99
2020-03-13 06:00:00 4.7 4 Nordeste 8 Nordeste 0 -- -- 98
2020-03-13 05:00:00 5.5 4 Nordeste 9 Sudeste 0 -- -- 98
2020-03-13 04:00:00 5.9 5 Este 8 Este 0 -- -- 97
2020-03-13 03:00:00 6.2 5 Nordeste 10 Norte 0 -- -- 96
2020-03-13 02:00:00 7.4 6 Nordeste 9 Norte 0 -- -- 92
2020-03-13 01:00:00 8.2 6 Nordeste 10 Nordeste 0 -- -- 91
2020-03-13 00:00:00 10.1 5 Nordeste 14 Norte 0 -- -- 88
2020-03-12 23:00:00 12.4 4 Sudoeste 8 Sur 0 -- -- 75
2020-03-12 22:00:00 13.9 6 Sur 8 Sur 0 -- -- 68
2020-03-12 21:00:00 13.9 6 Oeste 7 Oeste 0 -- -- 69
2020-03-12 20:00:00 15.6 0 Calma 5 Nordeste 0 -- -- 64
2020-03-12 19:00:00 16.7 6 Norte 20 Norte 0 -- -- 62
2020-03-12 18:00:00 18.3 12 Norte 22 Norte 0 -- -- 58
2020-03-12 17:00:00 20.6 14 Noroeste 25 Noroeste 0 -- -- 50
2020-03-12 16:00:00 21.9 12 Noroeste 21 Noroeste 0 -- -- 37
2020-03-12 15:00:00 21.8 11 Noroeste 20 Noroeste 0 -- -- 35
2020-03-12 14:00:00 21.4 9 Noroeste 15 Noroeste 0 -- -- 38
2020-03-12 13:00:00 20.9 5 Nordeste 9 Nordeste 0 -- -- 37
2020-03-12 12:00:00 20.3 4 Nordeste 7 Nordeste 0 -- -- 41
2020-03-12 11:00:00 19.1 3 Oeste 8 Oeste 0 -- -- 39
2020-03-12 10:00:00 15.5 5 Oeste 8 Sudoeste 0 -- -- 62
2020-03-12 09:00:00 13.7 6 Sudoeste 10 Sudoeste 0 -- -- 59
2020-03-12 08:00:00 13 3 Sudoeste 10 Sudoeste 0 -- -- 53
2020-03-12 07:00:00 13 8 Sudoeste 9 Sudoeste 0 -- -- 48
2020-03-12 06:00:00 11.9 6 Sudoeste 10 Sudoeste 0 -- -- 55
2020-03-12 05:00:00 11.1 6 Sudoeste 11 Sudoeste 0 -- -- 64
2020-03-12 04:00:00 11.8 10 Sudoeste 12 Sudoeste 0 -- -- 67
2020-03-12 03:00:00 11.3 5 Oeste 12 Sudoeste 0 -- -- 69
2020-03-12 02:00:00 12.7 6 Sudoeste 9 Sudoeste 0 -- -- 64
2020-03-12 01:00:00 13.7 3 Sur 12 Sur 0 -- -- 61
2020-03-12 00:00:00 15.8 6 Sur 17 Sur 0 -- -- 53
2020-03-11 23:00:00 14.6 8 Sur 12 Sur 0 -- -- 59
2020-03-11 22:00:00 13.8 5 Sur 8 Sur 0 -- -- 64
2020-03-11 21:00:00 15.5 6 Sur 9 Sudeste 0 -- -- 57
2020-03-11 20:00:00 17.3 6 Oeste 12 Oeste 0 -- -- 52
2020-03-11 19:00:00 18.9 3 Norte 10 Norte 0 -- -- 54
2020-03-11 18:00:00 20.9 6 Norte 17 Oeste 0 -- -- 50
2020-03-11 17:00:00 22.6 12 Oeste 23 Oeste 0 -- -- 39
2020-03-11 16:00:00 22.7 12 Noroeste 18 Noroeste 0 -- -- 43
2020-03-11 15:00:00 21.9 10 Noroeste 22 Oeste 0 -- -- 40
2020-03-11 14:00:00 21.9 14 Noroeste 21 Oeste 0 -- -- 39
2020-03-11 13:00:00 21.3 12 Oeste 21 Oeste 0 -- -- 42
2020-03-11 12:00:00 19.4 7 Norte 15 Noroeste 0 -- -- 51
2020-03-11 11:00:00 18.5 2 Nordeste 5 Este 0 -- -- 50
2020-03-11 10:00:00 16.4 3 Este 5 Este 0 -- -- 59
2020-03-11 09:00:00 12.1 2 Sudoeste 9 Sudoeste 0 -- -- 77
2020-03-11 08:00:00 9.9 5 Sur 8 Sur 0 -- -- 81
2020-03-11 07:00:00 10.2 8 Sur 10 Sur 0 -- -- 77
2020-03-11 06:00:00 10.4 4 Sudoeste 10 Sur 0 -- -- 77
2020-03-11 05:00:00 10 6 Sudoeste 10 Sudoeste 0 -- -- 78
2020-03-11 04:00:00 10.1 8 Sur 10 Sudoeste 0 -- -- 79
2020-03-11 03:00:00 9.4 5 Sur 9 Sudoeste 0 -- -- 82
2020-03-11 02:00:00 9.7 7 Sur 10 Sur 0 -- -- 81
2020-03-11 01:00:00 11.5 8 Sudoeste 17 Sudoeste 0 -- -- 73
2020-03-11 00:00:00 12 10 Sudoeste 17 Sudoeste 0 -- -- 71
2020-03-10 23:00:00 11.8 10 Sudoeste 16 Sudoeste 0 -- -- 73
2020-03-10 22:00:00 12 10 Sudoeste 13 Oeste 0 -- -- 74
2020-03-10 21:00:00 13.6 10 Oeste 14 Oeste 0 -- -- 68
2020-03-10 20:00:00 15.1 10 Oeste 13 Oeste 0 -- -- 62
2020-03-10 19:00:00 17.8 9 Noroeste 18 Noroeste 0 -- -- 55
2020-03-10 18:00:00 20.7 15 Oeste 27 Oeste 0 -- -- 40
2020-03-10 17:00:00 20.9 16 Oeste 29 Oeste 0 -- -- 42
2020-03-10 16:00:00 20.1 20 Oeste 29 Oeste 0 -- -- 43
2020-03-10 15:00:00 19.8 15 Oeste 28 Noroeste 0 -- -- 45
2020-03-10 14:00:00 19.2 10 Oeste 19 Oeste 0 -- -- 46
2020-03-10 13:00:00 17.6 12 Oeste 21 Oeste 0 -- -- 47
2020-03-10 12:00:00 16.9 10 Oeste 15 Oeste 0 -- -- 46
2020-03-10 11:00:00 15.9 8 Oeste 13 Oeste 0 -- -- 48
2020-03-10 10:00:00 13 0 Calma 7 Sur 0 -- -- 63
2020-03-10 09:00:00 9.8 5 Sudoeste 15 Sur 0 -- -- 60
2020-03-10 08:00:00 8 8 Sudoeste 19 Sudoeste 0 -- -- 63
2020-03-10 07:00:00 6.2 11 Sudoeste 20 Sudoeste 0 -- -- 72
2020-03-10 06:00:00 6.9 13 Sudoeste 19 Sudoeste 0 -- -- 68
2020-03-10 05:00:00 6.4 12 Sudoeste 17 Sudoeste 0 -- -- 70
2020-03-10 04:00:00 6.2 12 Sudoeste 19 Sudoeste 0 -- -- 71
2020-03-10 03:00:00 6.5 14 Sudoeste 19 Sudoeste 0 -- -- 71
2020-03-10 02:00:00 7 12 Sudoeste 21 Sudoeste 0 -- -- 69
2020-03-10 01:00:00 6.7 11 Sudoeste 20 Sudoeste 0 -- -- 70
2020-03-10 00:00:00 7 10 Sudoeste 16 Sudoeste 0 -- -- 67
2020-03-09 23:00:00 6.5 7 Sudoeste 10 Sudoeste 0 -- -- 66
2020-03-09 22:00:00 7 8 Sudoeste 10 Sudoeste 0 -- -- 63
2020-03-09 21:00:00 7.8 5 Oeste 8 Oeste 0 -- -- 61
2020-03-09 20:00:00 8.3 8 Noroeste 9 Noroeste 0 -- -- 59
2020-03-09 19:00:00 10.2 9 Noroeste 15 Noroeste 0 -- -- 57
2020-03-09 18:00:00 12.4 9 Noroeste 21 Norte 0 -- -- 48
2020-03-09 17:00:00 12.3 10 Norte 25 Noroeste 0 -- -- 46
2020-03-09 16:00:00 12 15 Noroeste 23 Oeste 0 -- -- 47
2020-03-09 15:00:00 11.2 16 Noroeste 25 Noroeste 0 -- -- 55
2020-03-09 14:00:00 10.2 15 Oeste 23 Oeste 0 -- -- 63
2020-03-09 13:00:00 9 13 Oeste 22 Noroeste 0 -- -- 70
2020-03-09 12:00:00 7.7 11 Noroeste 22 Oeste 0 -- -- 75
2020-03-09 11:00:00 6.4 12 Oeste 23 Oeste 0 -- -- 82
2020-03-09 10:00:00 5.3 17 Oeste 26 Oeste 0 -- -- 88
2020-03-09 09:00:00 4 15 Oeste 23 Oeste 0 -- -- 95
2020-03-09 08:00:00 2.6 13 Oeste 23 Oeste 0 -- -- 97
2020-03-09 07:00:00 3.3 16 Oeste 26 Oeste 0 -- -- 96
2020-03-09 06:00:00 3.1 14 Oeste 23 Oeste 0 -- -- 95
2020-03-09 05:00:00 3.7 13 Oeste 27 Oeste 0 -- -- 95
2020-03-09 04:00:00 4.7 13 Oeste 30 Oeste 0 -- -- 95
2020-03-09 03:00:00 5 14 Oeste 25 Oeste 0 -- -- 97
2020-03-09 02:00:00 6.1 19 Oeste 36 Oeste 0 -- -- 95
2020-03-09 01:00:00 7.1 29 Oeste 41 Oeste 0 -- -- 92
2020-03-09 00:00:00 7.6 29 Oeste 39 Oeste 0 -- -- 91
2020-03-08 23:00:00 8 23 Oeste 36 Oeste 0 -- -- 90
2020-03-08 22:00:00 7.3 20 Oeste 34 Oeste 0 -- -- 91
2020-03-08 21:00:00 7.6 22 Oeste 35 Oeste 0 -- -- 89
2020-03-08 20:00:00 8 18 Oeste 31 Oeste 0 -- -- 87
2020-03-08 19:00:00 9 22 Oeste 39 Oeste 0 -- -- 82
2020-03-08 18:00:00 10.6 22 Oeste 35 Oeste 0 -- -- 70
2020-03-08 17:00:00 11.1 21 Oeste 35 Oeste 0 -- -- 61
2020-03-08 16:00:00 10.8 23 Oeste 39 Oeste 0 -- -- 52
2020-03-08 15:00:00 11.3 24 Oeste 36 Oeste 0 -- -- 65
2020-03-08 14:00:00 10.6 23 Oeste 35 Oeste 0 -- -- 64
2020-03-08 13:00:00 9.3 23 Oeste 38 Oeste 0 -- -- 70
2020-03-08 12:00:00 9.7 16 Oeste 26 Oeste 0 -- -- 73
2020-03-08 11:00:00 7.8 14 Sudoeste 22 Oeste 0 -- -- 80
2020-03-08 10:00:00 5.6 10 Oeste 18 Oeste 0 -- -- 96
2020-03-08 09:00:00 4.1 9 Sudoeste 15 Sudoeste 0 -- -- 93
2020-03-08 08:00:00 1.9 9 Sudoeste 14 Sudoeste 0 -- -- 92
2020-03-08 07:00:00 1.9 7 Sudoeste 14 Sudoeste 0 -- -- 87
2020-03-08 06:00:00 0.7 8 Oeste 10 Sudoeste 0 -- -- 92
2020-03-08 05:00:00 2 5 Sudoeste 9 Sudoeste 0 -- -- 93
2020-03-08 04:00:00 3.1 4 Sudoeste 12 Sudoeste 0 -- -- 87
2020-03-08 03:00:00 2.3 8 Sudoeste 9 Sudoeste 0 -- -- 88
2020-03-08 02:00:00 3.6 4 Sudoeste 9 Sudoeste 0 -- -- 86
2020-03-08 01:00:00 3.6 4 Sudoeste 8 Sur 0 -- -- 85
2020-03-08 00:00:00 4.4 5 Sudoeste 9 Sudoeste 0 -- -- 83
2020-03-07 23:00:00 4.6 6 Sudoeste 8 Sudoeste 0 -- -- 83
2020-03-07 22:00:00 5.1 4 Sur 10 Sur 0 -- -- 79
2020-03-07 21:00:00 6.6 5 Sur 6 Sur 0 -- -- 76
2020-03-07 20:00:00 8.1 0 Calma 3 Nordeste 0 -- -- 69
2020-03-07 19:00:00 10.1 2 Norte 10 Oeste 0 -- -- 66
2020-03-07 18:00:00 11.1 10 Noroeste 17 Noroeste 0 -- -- 61
2020-03-07 17:00:00 11.3 8 Norte 14 Noroeste 0 -- -- 61
2020-03-07 16:00:00 10.9 5 Norte 13 Nordeste 0 -- -- 61
2020-03-07 15:00:00 10.8 7 Norte 15 Norte 0 -- -- 60
2020-03-07 14:00:00 10.2 5 Noroeste 13 Nordeste 0 -- -- 64
2020-03-07 13:00:00 9.3 5 Noroeste 13 Oeste 0 -- -- 66
2020-03-07 12:00:00 7.9 5 Oeste 12 Oeste 0 -- -- 70
2020-03-07 11:00:00 6.9 6 Noroeste 20 Sudoeste 0 -- -- 74
2020-03-07 10:00:00 5 13 Sudoeste 24 Sudoeste 0 -- -- 83
2020-03-07 09:00:00 2.6 13 Sudoeste 24 Sudoeste 0 -- -- 90
2020-03-07 08:00:00 0.8 11 Oeste 23 Sudoeste 0 -- -- 90
2020-03-07 07:00:00 0.6 12 Sudoeste 24 Sudoeste 0 -- -- 90
2020-03-07 06:00:00 0.3 13 Sudoeste 20 Sudoeste 0 -- -- 91
2020-03-07 05:00:00 0.4 15 Sudoeste 22 Sudoeste 0 -- -- 90
2020-03-07 04:00:00 0.4 14 Oeste 20 Oeste 0 -- -- 89
2020-03-07 03:00:00 0.7 14 Oeste 21 Oeste 0 -- -- 87
2020-03-07 02:00:00 0.6 14 Oeste 22 Oeste 0 -- -- 85
2020-03-07 01:00:00 0.7 17 Oeste 22 Oeste 0 -- -- 87
2020-03-07 00:00:00 0.6 11 Oeste 19 Oeste 0 -- -- 86
2020-03-06 23:00:00 1.2 13 Oeste 19 Noroeste 0 -- -- 83
2020-03-06 22:00:00 2.5 11 Oeste 16 Noroeste 0 -- -- 79
2020-03-06 21:00:00 3 10 Oeste 21 Noroeste 0 -- -- 78
2020-03-06 20:00:00 4.2 16 Noroeste 30 Noroeste 0 -- -- 73
2020-03-06 19:00:00 6.8 22 Noroeste 44 Oeste 0 -- -- 67
2020-03-06 18:00:00 8 32 Oeste 44 Oeste 0 -- -- 58
2020-03-06 17:00:00 7.7 33 Noroeste 47 Oeste 0 -- -- 62
2020-03-06 16:00:00 8.1 27 Noroeste 45 Oeste 0 -- -- 56
2020-03-06 15:00:00 7 28 Noroeste 45 Noroeste 0 -- -- 66
2020-03-06 14:00:00 6.9 32 Noroeste 49 Oeste 0 -- -- 64
2020-03-06 13:00:00 5.9 33 Noroeste 54 Oeste 0 -- -- 71
2020-03-06 12:00:00 5.9 42 Oeste 59 Oeste 0 -- -- 71
2020-03-06 11:00:00 4.9 44 Oeste 63 Oeste 0 -- -- 82
2020-03-06 10:00:00 4.2 39 Oeste 51 Noroeste 0 -- -- 85
2020-03-06 09:00:00 3.3 32 Oeste 48 Oeste 0 -- -- 90
2020-03-06 08:00:00 2.7 31 Oeste 55 Oeste 0 -- -- 94
2020-03-06 07:00:00 3.8 39 Oeste 52 Oeste 0 -- -- 89
2020-03-06 06:00:00 3.9 28 Oeste 56 Oeste 0 -- -- 93
2020-03-06 05:00:00 4.1 40 Oeste 57 Oeste 0 -- -- 91
2020-03-06 04:00:00 4.1 27 Oeste 42 Oeste 0 -- -- 94
2020-03-06 03:00:00 3.6 28 Oeste 46 Sudoeste 0 -- -- 92
2020-03-06 02:00:00 3.2 25 Oeste 39 Oeste 0 -- -- 93
2020-03-06 01:00:00 3.4 23 Oeste 38 Sudoeste 0 -- -- 92
2020-03-06 00:00:00 3.8 22 Oeste 36 Oeste 0 -- -- 93
2020-03-05 23:00:00 4.6 26 Oeste 37 Oeste 0 -- -- 91
2020-03-05 22:00:00 5.1 24 Oeste 43 Oeste 0 -- -- 92
2020-03-05 21:00:00 5.7 35 Oeste 48 Oeste 0 -- -- 91
2020-03-05 20:00:00 6.1 25 Oeste 52 Oeste 0.8 -- -- 92
2020-03-05 19:00:00 7.4 23 Oeste 44 Oeste 0 -- -- 86
2020-03-05 18:00:00 7.7 36 Oeste 60 Noroeste 0 -- -- 86
2020-03-05 17:00:00 10.5 41 Oeste 62 Oeste 0 -- -- 66
2020-03-05 16:00:00 10.2 44 Oeste 61 Oeste 0 -- -- 67
2020-03-05 15:00:00 10.6 45 Oeste 65 Oeste 0 -- -- 67
2020-03-05 14:00:00 9.7 45 Oeste 63 Oeste 0 -- -- 70
2020-03-05 13:00:00 9 43 Oeste 65 Oeste 0 -- -- 70
2020-03-05 12:00:00 8.4 39 Oeste 62 Oeste 0 -- -- 79
2020-03-05 11:00:00 7.1 30 Oeste 70 Oeste 0 -- -- 91
2020-03-05 10:00:00 6.9 49 Noroeste 71 Oeste 1 -- -- 92
2020-03-05 09:00:00 9.6 33 Oeste 73 Sudoeste 0 -- -- 87
2020-03-05 08:00:00 9.2 42 Oeste 71 Sudoeste 0 -- -- 87
2020-03-05 07:00:00 9.6 39 Oeste 55 Oeste 0 -- -- 83
2020-03-05 06:00:00 9.3 30 Sudoeste 54 Sudoeste 0 -- -- 83
2020-03-05 05:00:00 9 21 Oeste 44 Sudoeste 0 -- -- 90
2020-03-05 04:00:00 9.9 21 Sudoeste 38 Sudoeste 0 -- -- 87
2020-03-05 03:00:00 9.5 17 Sudoeste 26 Sudoeste 0 -- -- 88
2020-03-05 02:00:00 9.8 15 Oeste 25 Oeste 0 -- -- 88
2020-03-05 01:00:00 9.5 14 Sudoeste 27 Sudoeste 0 -- -- 89
2020-03-05 00:00:00 10 15 Oeste 26 Oeste 0 -- -- 85
2020-03-04 23:00:00 9.8 12 Oeste 24 Oeste 0 -- -- 85
2020-03-04 22:00:00 9.7 13 Sudoeste 23 Sudoeste 0 -- -- 85
2020-03-04 21:00:00 9.4 13 Sudoeste 24 Oeste 0 -- -- 86
2020-03-04 20:00:00 10.7 16 Oeste 30 Oeste 0 -- -- 81
2020-03-04 19:00:00 11.2 15 Oeste 26 Oeste 0 -- -- 78
2020-03-04 18:00:00 12.1 14 Oeste 31 Oeste 0 -- -- 73
2020-03-04 17:00:00 12.4 22 Oeste 34 Oeste 0 -- -- 71
2020-03-04 16:00:00 11.8 26 Oeste 35 Oeste 0 -- -- 74
2020-03-04 15:00:00 11.9 24 Oeste 39 Oeste 0 -- -- 77
2020-03-04 14:00:00 11.7 25 Oeste 39 Oeste 0 -- -- 77
2020-03-04 13:00:00 11.4 24 Oeste 33 Oeste 0 -- -- 79
2020-03-04 12:00:00 10.8 23 Oeste 33 Oeste 0 -- -- 83
2020-03-04 11:00:00 10.2 22 Oeste 33 Oeste 0 -- -- 86
2020-03-04 10:00:00 9.4 19 Oeste 37 Oeste 0 -- -- 91
2020-03-04 09:00:00 8.7 21 Oeste 32 Oeste 0 -- -- 94
2020-03-04 08:00:00 8.7 22 Oeste 33 Oeste 0 -- -- 93
2020-03-04 07:00:00 8.9 20 Oeste 40 Oeste 0 -- -- 95
2020-03-04 06:00:00 9.4 23 Oeste 34 Oeste 0 -- -- 96
2020-03-04 05:00:00 9.8 23 Oeste 36 Oeste 0 -- -- 96
2020-03-04 04:00:00 9.9 20 Oeste 35 Oeste 0 -- -- 97
2020-03-04 03:00:00 10.2 20 Oeste 37 Sudoeste 0 -- -- 97
2020-03-04 02:00:00 10.1 22 Oeste 38 Sudoeste 0 -- -- 98
2020-03-04 01:00:00 10.3 23 Oeste 38 Oeste 0 -- -- 96
2020-03-04 00:00:00 10.6 19 Oeste 34 Oeste 0 -- -- 95
2020-03-03 23:00:00 10.5 23 Oeste 41 Sudoeste 0 -- -- 96
2020-03-03 22:00:00 10 23 Oeste 38 Oeste 0 -- -- 96
2020-03-03 21:00:00 10.4 26 Oeste 40 Oeste 0 -- -- 95
2020-03-03 20:00:00 11 29 Oeste 42 Oeste 0 -- -- 92
2020-03-03 19:00:00 11.3 31 Oeste 43 Oeste 0 -- -- 92
2020-03-03 18:00:00 11.3 24 Oeste 47 Oeste 0 -- -- 92
2020-03-03 17:00:00 11.4 22 Oeste 40 Oeste 0 -- -- 93
2020-03-03 16:00:00 11 26 Oeste 47 Oeste 0 -- -- 97
2020-03-03 15:00:00 10.2 28 Oeste 52 Oeste 0 -- -- 97
2020-03-03 14:00:00 9.4 32 Oeste 51 Sudoeste 0 -- -- 96
2020-03-03 13:00:00 8.2 35 Oeste 58 Oeste 0 -- -- 94
2020-03-03 12:00:00 8.2 31 Oeste 63 Sudoeste 0 -- -- 91
2020-03-03 11:00:00 8 42 Oeste 75 Oeste 0 -- -- 89
2020-03-03 10:00:00 7.4 44 Oeste 67 Oeste 0 -- -- 86
2020-03-03 09:00:00 5.8 41 Oeste 69 Oeste 0 -- -- 88
2020-03-03 08:00:00 5.4 38 Oeste 59 Oeste 0 -- -- 85
2020-03-03 07:00:00 5.6 33 Oeste 53 Oeste 0 -- -- 75
2020-03-03 06:00:00 5.6 29 Oeste 51 Sudoeste 0 -- -- 78
2020-03-03 05:00:00 5.1 24 Sudoeste 41 Oeste 0 -- -- 78
2020-03-03 04:00:00 4.5 25 Sudoeste 41 Oeste 0 -- -- 80
2020-03-03 03:00:00 4.2 23 Oeste 36 Sudoeste 0 -- -- 81
2020-03-03 02:00:00 3.9 19 Sudoeste 34 Sudoeste 0 -- -- 80
2020-03-03 01:00:00 3.5 21 Oeste 33 Oeste 0 -- -- 80
2020-03-03 00:00:00 2.7 22 Oeste 34 Sudoeste 0 -- -- 84
2020-03-02 23:00:00 3.1 16 Oeste 40 Oeste 0 -- -- 84
2020-03-02 22:00:00 4 23 Oeste 39 Oeste 0 -- -- 79
2020-03-02 21:00:00 4.1 22 Oeste 34 Oeste 0 -- -- 79
2020-03-02 20:00:00 3.7 18 Oeste 33 Oeste 0 -- -- 79
2020-03-02 19:00:00 5.3 31 Oeste 45 Oeste 0 -- -- 69
2020-03-02 18:00:00 6.2 39 Noroeste 54 Oeste 0 -- -- 61
2020-03-02 17:00:00 6.9 38 Noroeste 63 Noroeste 0 -- -- 59
2020-03-02 16:00:00 7.4 44 Noroeste 67 Oeste 0 -- -- 55
2020-03-02 15:00:00 6 45 Oeste 65 Noroeste 0.2 -- -- 69
2020-03-02 14:00:00 6.1 48 Noroeste 66 Oeste 0 -- -- 76
2020-03-02 13:00:00 5.4 52 Noroeste 75 Oeste 0.2 -- -- 75
2020-03-02 12:00:00 6.8 54 Oeste 67 Oeste 0 -- -- 73
2020-03-02 11:00:00 5.4 45 Oeste 74 Oeste 0.2 -- -- 89
2020-03-02 10:00:00 5.9 50 Oeste 74 Oeste 0 -- -- 79
2020-03-02 09:00:00 5.4 40 Oeste 56 Oeste 0 -- -- 86
2020-03-02 08:00:00 5.5 36 Oeste 80 Oeste 0 -- -- 89
2020-03-02 07:00:00 7.2 55 Oeste 81 Oeste 0 -- -- 82
2020-03-02 06:00:00 8.7 59 Oeste 96 Oeste 0 -- -- 82
2020-03-02 05:00:00 10 52 Oeste 76 Oeste 0.2 -- -- 83
2020-03-02 04:00:00 9.9 47 Sudoeste 74 Sudoeste 1.4 -- -- 88
2020-03-02 03:00:00 9.8 42 Sudoeste 72 Sudoeste 0 -- -- 86
2020-03-02 02:00:00 9.3 52 Sudoeste 90 Oeste 0.4 -- -- 88
2020-03-02 01:00:00 10.1 41 Sudoeste 78 Oeste 0.2 -- -- 86
2020-03-02 00:00:00 9.4 50 Sudoeste 89 Sudoeste 0.6 -- -- 89